sensor_id;sensor_type;location;lat;lon;timestamp;P1;durP1;ratioP1;P2;durP2;ratioP2
3329;SDS011;1677;49.576;10.990;2023-04-26T00:01:46;5.23;;;3.57;;
3329;SDS011;1677;49.576;10.990;2023-04-26T00:04:12;5.87;;;4.00;;
3329;SDS011;1677;49.576;10.990;2023-04-26T00:06:37;4.43;;;4.00;;
3329;SDS011;1677;49.576;10.990;2023-04-26T00:09:03;5.13;;;4.63;;
3329;SDS011;1677;49.576;10.990;2023-04-26T00:11:29;4.70;;;3.60;;
3329;SDS011;1677;49.576;10.990;2023-04-26T00:13:56;5.57;;;3.70;;
3329;SDS011;1677;49.576;10.990;2023-04-26T00:16:22;6.05;;;4.20;;
3329;SDS011;1677;49.576;10.990;2023-04-26T00:18:48;5.03;;;3.60;;
3329;SDS011;1677;49.576;10.990;2023-04-26T00:21:14;6.10;;;3.83;;
3329;SDS011;1677;49.576;10.990;2023-04-26T00:23:39;8.63;;;3.77;;
3329;SDS011;1677;49.576;10.990;2023-04-26T00:26:06;4.30;;;3.80;;
3329;SDS011;1677;49.576;10.990;2023-04-26T00:28:32;7.27;;;3.57;;
3329;SDS011;1677;49.576;10.990;2023-04-26T00:30:57;5.67;;;4.20;;
3329;SDS011;1677;49.576;10.990;2023-04-26T00:33:23;8.10;;;3.57;;
3329;SDS011;1677;49.576;10.990;2023-04-26T00:35:49;8.60;;;4.72;;
3329;SDS011;1677;49.576;10.990;2023-04-26T00:38:15;8.07;;;4.33;;
3329;SDS011;1677;49.576;10.990;2023-04-26T00:40:41;5.07;;;3.33;;
3329;SDS011;1677;49.576;10.990;2023-04-26T00:43:06;4.73;;;3.80;;
3329;SDS011;1677;49.576;10.990;2023-04-26T00:45:32;4.63;;;3.67;;
3329;SDS011;1677;49.576;10.990;2023-04-26T00:47:59;6.60;;;3.60;;
3329;SDS011;1677;49.576;10.990;2023-04-26T00:50:25;7.78;;;4.50;;
3329;SDS011;1677;49.576;10.990;2023-04-26T00:52:51;9.03;;;4.27;;
3329;SDS011;1677;49.576;10.990;2023-04-26T00:55:17;5.50;;;3.47;;
3329;SDS011;1677;49.576;10.990;2023-04-26T00:57:45;4.85;;;3.90;;
3329;SDS011;1677;49.576;10.990;2023-04-26T01:00:11;5.33;;;4.33;;
3329;SDS011;1677;49.576;10.990;2023-04-26T01:02:37;4.43;;;3.63;;
3329;SDS011;1677;49.576;10.990;2023-04-26T01:05:03;4.90;;;4.03;;
3329;SDS011;1677;49.576;10.990;2023-04-26T01:07:29;6.57;;;4.35;;
3329;SDS011;1677;49.576;10.990;2023-04-26T01:09:56;6.05;;;4.40;;
3329;SDS011;1677;49.576;10.990;2023-04-26T01:12:23;3.92;;;3.50;;
3329;SDS011;1677;49.576;10.990;2023-04-26T01:14:48;7.20;;;4.17;;
3329;SDS011;1677;49.576;10.990;2023-04-26T01:17:15;4.57;;;3.35;;
3329;SDS011;1677;49.576;10.990;2023-04-26T01:19:47;7.97;;;3.57;;
3329;SDS011;1677;49.576;10.990;2023-04-26T01:22:13;4.82;;;3.30;;
3329;SDS011;1677;49.576;10.990;2023-04-26T01:24:38;9.13;;;3.93;;
3329;SDS011;1677;49.576;10.990;2023-04-26T01:27:07;5.07;;;3.53;;
3329;SDS011;1677;49.576;10.990;2023-04-26T01:29:33;8.17;;;4.00;;
3329;SDS011;1677;49.576;10.990;2023-04-26T01:31:59;3.85;;;3.50;;
3329;SDS011;1677;49.576;10.990;2023-04-26T01:34:25;6.90;;;3.63;;
3329;SDS011;1677;49.576;10.990;2023-04-26T01:36:50;6.03;;;3.60;;
3329;SDS011;1677;49.576;10.990;2023-04-26T01:39:16;5.23;;;3.70;;
3329;SDS011;1677;49.576;10.990;2023-04-26T01:41:42;3.77;;;3.27;;
3329;SDS011;1677;49.576;10.990;2023-04-26T01:44:07;4.53;;;3.40;;
3329;SDS011;1677;49.576;10.990;2023-04-26T01:46:33;7.00;;;3.70;;
3329;SDS011;1677;49.576;10.990;2023-04-26T01:48:58;3.60;;;3.20;;
3329;SDS011;1677;49.576;10.990;2023-04-26T01:51:24;4.23;;;3.30;;
3329;SDS011;1677;49.576;10.990;2023-04-26T01:53:51;4.82;;;3.65;;
3329;SDS011;1677;49.576;10.990;2023-04-26T01:56:17;9.77;;;5.73;;
3329;SDS011;1677;49.576;10.990;2023-04-26T01:58:43;10.82;;;6.00;;
3329;SDS011;1677;49.576;10.990;2023-04-26T02:01:09;6.37;;;3.33;;
3329;SDS011;1677;49.576;10.990;2023-04-26T02:03:35;4.00;;;3.60;;
3329;SDS011;1677;49.576;10.990;2023-04-26T02:06:01;5.30;;;4.80;;
3329;SDS011;1677;49.576;10.990;2023-04-26T02:08:27;7.90;;;3.42;;
3329;SDS011;1677;49.576;10.990;2023-04-26T02:10:52;4.00;;;3.63;;
3329;SDS011;1677;49.576;10.990;2023-04-26T02:13:18;5.10;;;3.50;;
3329;SDS011;1677;49.576;10.990;2023-04-26T02:15:47;5.37;;;3.60;;
3329;SDS011;1677;49.576;10.990;2023-04-26T02:18:13;7.80;;;3.58;;
3329;SDS011;1677;49.576;10.990;2023-04-26T02:20:43;4.75;;;3.72;;
3329;SDS011;1677;49.576;10.990;2023-04-26T02:23:09;10.63;;;4.43;;
3329;SDS011;1677;49.576;10.990;2023-04-26T02:25:36;7.68;;;3.60;;
3329;SDS011;1677;49.576;10.990;2023-04-26T02:28:02;11.35;;;3.47;;
3329;SDS011;1677;49.576;10.990;2023-04-26T02:30:28;5.07;;;3.72;;
3329;SDS011;1677;49.576;10.990;2023-04-26T02:32:54;6.33;;;3.40;;
3329;SDS011;1677;49.576;10.990;2023-04-26T02:35:20;11.38;;;4.32;;
3329;SDS011;1677;49.576;10.990;2023-04-26T02:37:46;4.13;;;3.47;;
3329;SDS011;1677;49.576;10.990;2023-04-26T02:40:19;8.23;;;3.40;;
3329;SDS011;1677;49.576;10.990;2023-04-26T02:42:45;7.30;;;3.42;;
3329;SDS011;1677;49.576;10.990;2023-04-26T02:45:10;5.90;;;3.60;;
3329;SDS011;1677;49.576;10.990;2023-04-26T02:47:36;8.57;;;4.17;;
3329;SDS011;1677;49.576;10.990;2023-04-26T02:50:03;6.85;;;4.07;;
3329;SDS011;1677;49.576;10.990;2023-04-26T02:52:29;4.93;;;3.30;;
3329;SDS011;1677;49.576;10.990;2023-04-26T02:54:55;7.40;;;3.53;;
3329;SDS011;1677;49.576;10.990;2023-04-26T02:57:20;5.20;;;3.57;;
3329;SDS011;1677;49.576;10.990;2023-04-26T02:59:46;5.23;;;3.67;;
3329;SDS011;1677;49.576;10.990;2023-04-26T03:02:11;6.83;;;5.20;;
3329;SDS011;1677;49.576;10.990;2023-04-26T03:04:37;4.80;;;3.70;;
3329;SDS011;1677;49.576;10.990;2023-04-26T03:07:03;4.30;;;3.90;;
3329;SDS011;1677;49.576;10.990;2023-04-26T03:09:29;7.37;;;4.87;;
3329;SDS011;1677;49.576;10.990;2023-04-26T03:11:55;4.90;;;3.67;;
3329;SDS011;1677;49.576;10.990;2023-04-26T03:14:21;10.20;;;4.03;;
3329;SDS011;1677;49.576;10.990;2023-04-26T03:16:46;5.60;;;3.90;;
3329;SDS011;1677;49.576;10.990;2023-04-26T03:19:12;10.57;;;4.40;;
3329;SDS011;1677;49.576;10.990;2023-04-26T03:21:38;5.47;;;3.55;;
3329;SDS011;1677;49.576;10.990;2023-04-26T03:24:04;4.33;;;3.80;;
3329;SDS011;1677;49.576;10.990;2023-04-26T03:26:30;5.03;;;4.13;;
3329;SDS011;1677;49.576;10.990;2023-04-26T03:28:56;6.37;;;3.60;;
3329;SDS011;1677;49.576;10.990;2023-04-26T03:31:21;4.43;;;4.00;;
3329;SDS011;1677;49.576;10.990;2023-04-26T03:33:47;7.35;;;4.63;;
3329;SDS011;1677;49.576;10.990;2023-04-26T03:36:13;10.13;;;5.10;;
3329;SDS011;1677;49.576;10.990;2023-04-26T03:38:38;5.07;;;4.57;;
3329;SDS011;1677;49.576;10.990;2023-04-26T03:41:04;5.57;;;4.20;;
3329;SDS011;1677;49.576;10.990;2023-04-26T03:43:30;8.13;;;3.43;;
3329;SDS011;1677;49.576;10.990;2023-04-26T03:45:56;6.13;;;4.68;;
3329;SDS011;1677;49.576;10.990;2023-04-26T03:48:21;9.67;;;5.70;;
3329;SDS011;1677;49.576;10.990;2023-04-26T03:50:47;12.80;;;4.60;;
3329;SDS011;1677;49.576;10.990;2023-04-26T03:53:12;4.63;;;3.97;;
3329;SDS011;1677;49.576;10.990;2023-04-26T03:55:38;9.77;;;5.10;;
3329;SDS011;1677;49.576;10.990;2023-04-26T03:58:03;9.60;;;4.53;;
3329;SDS011;1677;49.576;10.990;2023-04-26T04:00:32;5.57;;;4.38;;
3329;SDS011;1677;49.576;10.990;2023-04-26T04:02:59;5.78;;;4.60;;
3329;SDS011;1677;49.576;10.990;2023-04-26T04:05:24;14.23;;;5.23;;
3329;SDS011;1677;49.576;10.990;2023-04-26T04:07:50;6.70;;;5.00;;
3329;SDS011;1677;49.576;10.990;2023-04-26T04:10:16;7.00;;;4.75;;
3329;SDS011;1677;49.576;10.990;2023-04-26T04:12:41;5.60;;;4.87;;
3329;SDS011;1677;49.576;10.990;2023-04-26T04:15:07;6.60;;;5.40;;
3329;SDS011;1677;49.576;10.990;2023-04-26T04:17:33;8.10;;;5.00;;
3329;SDS011;1677;49.576;10.990;2023-04-26T04:19:59;6.43;;;4.90;;
3329;SDS011;1677;49.576;10.990;2023-04-26T04:22:27;8.27;;;5.72;;
3329;SDS011;1677;49.576;10.990;2023-04-26T04:24:53;7.83;;;4.97;;
3329;SDS011;1677;49.576;10.990;2023-04-26T04:27:18;8.47;;;5.63;;
3329;SDS011;1677;49.576;10.990;2023-04-26T04:29:45;4.57;;;4.18;;
3329;SDS011;1677;49.576;10.990;2023-04-26T04:32:11;7.07;;;5.30;;
3329;SDS011;1677;49.576;10.990;2023-04-26T04:34:37;6.85;;;5.25;;
3329;SDS011;1677;49.576;10.990;2023-04-26T04:37:03;7.53;;;4.87;;
3329;SDS011;1677;49.576;10.990;2023-04-26T04:39:29;8.60;;;5.40;;
3329;SDS011;1677;49.576;10.990;2023-04-26T04:41:54;6.23;;;5.23;;
3329;SDS011;1677;49.576;10.990;2023-04-26T04:44:22;8.82;;;5.65;;
3329;SDS011;1677;49.576;10.990;2023-04-26T04:46:48;10.43;;;4.47;;
3329;SDS011;1677;49.576;10.990;2023-04-26T04:49:14;6.60;;;5.13;;
3329;SDS011;1677;49.576;10.990;2023-04-26T04:51:40;11.87;;;6.53;;
3329;SDS011;1677;49.576;10.990;2023-04-26T04:54:12;7.13;;;5.97;;
3329;SDS011;1677;49.576;10.990;2023-04-26T04:56:38;6.78;;;4.80;;
3329;SDS011;1677;49.576;10.990;2023-04-26T04:59:04;10.33;;;4.60;;
3329;SDS011;1677;49.576;10.990;2023-04-26T05:01:30;6.23;;;4.23;;
3329;SDS011;1677;49.576;10.990;2023-04-26T05:03:57;12.23;;;5.93;;
3329;SDS011;1677;49.576;10.990;2023-04-26T05:06:23;6.05;;;4.93;;
3329;SDS011;1677;49.576;10.990;2023-04-26T05:08:49;8.70;;;5.13;;
3329;SDS011;1677;49.576;10.990;2023-04-26T05:11:15;6.77;;;4.83;;
3329;SDS011;1677;49.576;10.990;2023-04-26T05:13:40;7.50;;;5.50;;
3329;SDS011;1677;49.576;10.990;2023-04-26T05:16:06;7.60;;;5.63;;
3329;SDS011;1677;49.576;10.990;2023-04-26T05:18:32;9.60;;;5.50;;
3329;SDS011;1677;49.576;10.990;2023-04-26T05:20:57;7.07;;;5.50;;
3329;SDS011;1677;49.576;10.990;2023-04-26T05:26:03;9.43;;;5.60;;
3329;SDS011;1677;49.576;10.990;2023-04-26T05:28:29;7.88;;;5.28;;
3329;SDS011;1677;49.576;10.990;2023-04-26T05:30:55;6.33;;;5.10;;
3329;SDS011;1677;49.576;10.990;2023-04-26T05:33:21;10.83;;;4.63;;
3329;SDS011;1677;49.576;10.990;2023-04-26T05:35:47;8.90;;;5.50;;
3329;SDS011;1677;49.576;10.990;2023-04-26T05:38:12;8.27;;;5.63;;
3329;SDS011;1677;49.576;10.990;2023-04-26T05:40:38;7.57;;;4.75;;
3329;SDS011;1677;49.576;10.990;2023-04-26T05:43:04;8.90;;;4.47;;
3329;SDS011;1677;49.576;10.990;2023-04-26T05:45:30;5.67;;;4.50;;
3329;SDS011;1677;49.576;10.990;2023-04-26T05:47:55;10.63;;;4.47;;
3329;SDS011;1677;49.576;10.990;2023-04-26T05:50:21;9.13;;;4.40;;
3329;SDS011;1677;49.576;10.990;2023-04-26T05:52:47;12.67;;;3.90;;
3329;SDS011;1677;49.576;10.990;2023-04-26T05:55:12;6.03;;;4.23;;
3329;SDS011;1677;49.576;10.990;2023-04-26T05:57:38;7.90;;;5.40;;
3329;SDS011;1677;49.576;10.990;2023-04-26T06:00:05;7.72;;;4.30;;
3329;SDS011;1677;49.576;10.990;2023-04-26T06:02:33;5.25;;;4.30;;
3329;SDS011;1677;49.576;10.990;2023-04-26T06:04:59;5.70;;;4.43;;
3329;SDS011;1677;49.576;10.990;2023-04-26T06:07:24;6.63;;;5.37;;
3329;SDS011;1677;49.576;10.990;2023-04-26T06:09:50;5.10;;;4.43;;
3329;SDS011;1677;49.576;10.990;2023-04-26T06:12:16;8.73;;;4.60;;
3329;SDS011;1677;49.576;10.990;2023-04-26T06:14:41;6.43;;;4.40;;
3329;SDS011;1677;49.576;10.990;2023-04-26T06:17:07;8.87;;;3.53;;
3329;SDS011;1677;49.576;10.990;2023-04-26T06:19:33;6.18;;;4.38;;
3329;SDS011;1677;49.576;10.990;2023-04-26T06:21:59;7.50;;;4.30;;
3329;SDS011;1677;49.576;10.990;2023-04-26T06:24:24;5.00;;;4.50;;
3329;SDS011;1677;49.576;10.990;2023-04-26T06:26:50;4.37;;;3.77;;
3329;SDS011;1677;49.576;10.990;2023-04-26T06:29:16;4.20;;;3.80;;
3329;SDS011;1677;49.576;10.990;2023-04-26T06:31:41;7.50;;;3.83;;
3329;SDS011;1677;49.576;10.990;2023-04-26T06:34:07;5.93;;;3.87;;
3329;SDS011;1677;49.576;10.990;2023-04-26T06:36:33;5.33;;;3.43;;
3329;SDS011;1677;49.576;10.990;2023-04-26T06:38:58;6.43;;;3.13;;
3329;SDS011;1677;49.576;10.990;2023-04-26T06:41:24;4.67;;;3.47;;
3329;SDS011;1677;49.576;10.990;2023-04-26T06:43:50;3.43;;;2.80;;
3329;SDS011;1677;49.576;10.990;2023-04-26T06:46:15;3.17;;;2.93;;
3329;SDS011;1677;49.576;10.990;2023-04-26T06:48:41;4.10;;;3.70;;
3329;SDS011;1677;49.576;10.990;2023-04-26T06:51:06;12.20;;;2.60;;
3329;SDS011;1677;49.576;10.990;2023-04-26T06:53:33;4.93;;;2.20;;
3329;SDS011;1677;49.576;10.990;2023-04-26T06:55:59;4.35;;;2.95;;
3329;SDS011;1677;49.576;10.990;2023-04-26T06:58:25;6.20;;;3.00;;
3329;SDS011;1677;49.576;10.990;2023-04-26T07:00:50;7.20;;;2.13;;
3329;SDS011;1677;49.576;10.990;2023-04-26T07:03:16;4.50;;;2.50;;
3329;SDS011;1677;49.576;10.990;2023-04-26T07:05:41;4.80;;;2.70;;
3329;SDS011;1677;49.576;10.990;2023-04-26T07:08:07;4.13;;;2.50;;
3329;SDS011;1677;49.576;10.990;2023-04-26T07:10:33;7.20;;;3.10;;
3329;SDS011;1677;49.576;10.990;2023-04-26T07:12:59;6.13;;;2.13;;
3329;SDS011;1677;49.576;10.990;2023-04-26T07:15:24;4.20;;;2.13;;
3329;SDS011;1677;49.576;10.990;2023-04-26T07:17:50;4.47;;;2.13;;
3329;SDS011;1677;49.576;10.990;2023-04-26T07:20:15;4.93;;;2.37;;
3329;SDS011;1677;49.576;10.990;2023-04-26T07:22:44;11.15;;;2.85;;
3329;SDS011;1677;49.576;10.990;2023-04-26T07:25:10;4.25;;;2.60;;
3329;SDS011;1677;49.576;10.990;2023-04-26T07:27:36;3.53;;;2.10;;
3329;SDS011;1677;49.576;10.990;2023-04-26T07:30:02;2.50;;;1.70;;
3329;SDS011;1677;49.576;10.990;2023-04-26T07:32:29;3.53;;;2.05;;
3329;SDS011;1677;49.576;10.990;2023-04-26T07:34:54;3.33;;;1.67;;
3329;SDS011;1677;49.576;10.990;2023-04-26T07:37:20;2.63;;;1.80;;
3329;SDS011;1677;49.576;10.990;2023-04-26T07:39:46;2.17;;;1.80;;
3329;SDS011;1677;49.576;10.990;2023-04-26T07:42:11;2.67;;;1.70;;
3329;SDS011;1677;49.576;10.990;2023-04-26T07:44:37;7.20;;;2.47;;
3329;SDS011;1677;49.576;10.990;2023-04-26T07:47:02;6.60;;;1.97;;
3329;SDS011;1677;49.576;10.990;2023-04-26T07:49:28;3.50;;;1.93;;
3329;SDS011;1677;49.576;10.990;2023-04-26T07:51:53;4.17;;;1.83;;
3329;SDS011;1677;49.576;10.990;2023-04-26T07:54:20;3.03;;;1.70;;
3329;SDS011;1677;49.576;10.990;2023-04-26T07:56:45;2.27;;;1.90;;
3329;SDS011;1677;49.576;10.990;2023-04-26T07:59:11;7.30;;;2.10;;
3329;SDS011;1677;49.576;10.990;2023-04-26T08:01:37;1.93;;;1.60;;
3329;SDS011;1677;49.576;10.990;2023-04-26T08:04:02;4.63;;;1.80;;
3329;SDS011;1677;49.576;10.990;2023-04-26T08:06:29;3.63;;;1.80;;
3329;SDS011;1677;49.576;10.990;2023-04-26T08:08:55;3.03;;;2.03;;
3329;SDS011;1677;49.576;10.990;2023-04-26T08:11:21;8.80;;;2.00;;
3329;SDS011;1677;49.576;10.990;2023-04-26T08:13:46;2.17;;;1.93;;
3329;SDS011;1677;49.576;10.990;2023-04-26T08:16:12;2.40;;;1.60;;
3329;SDS011;1677;49.576;10.990;2023-04-26T08:18:38;5.83;;;1.60;;
3329;SDS011;1677;49.576;10.990;2023-04-26T08:21:04;5.53;;;2.70;;
3329;SDS011;1677;49.576;10.990;2023-04-26T08:23:33;3.77;;;2.37;;
3329;SDS011;1677;49.576;10.990;2023-04-26T08:26:00;4.13;;;2.10;;
3329;SDS011;1677;49.576;10.990;2023-04-26T08:28:26;2.97;;;1.90;;
3329;SDS011;1677;49.576;10.990;2023-04-26T08:30:51;3.03;;;1.83;;
3329;SDS011;1677;49.576;10.990;2023-04-26T08:33:17;2.70;;;1.97;;
3329;SDS011;1677;49.576;10.990;2023-04-26T08:35:43;3.00;;;2.17;;
3329;SDS011;1677;49.576;10.990;2023-04-26T08:38:09;4.70;;;1.97;;
3329;SDS011;1677;49.576;10.990;2023-04-26T08:40:34;3.45;;;2.35;;
3329;SDS011;1677;49.576;10.990;2023-04-26T08:43:00;6.53;;;2.00;;
3329;SDS011;1677;49.576;10.990;2023-04-26T08:45:26;2.43;;;2.00;;
3329;SDS011;1677;49.576;10.990;2023-04-26T08:47:52;5.75;;;2.50;;
3329;SDS011;1677;49.576;10.990;2023-04-26T08:50:21;4.67;;;2.10;;
3329;SDS011;1677;49.576;10.990;2023-04-26T08:52:48;4.23;;;1.60;;
3329;SDS011;1677;49.576;10.990;2023-04-26T08:55:15;3.00;;;2.00;;
3329;SDS011;1677;49.576;10.990;2023-04-26T08:57:42;4.60;;;2.57;;
3329;SDS011;1677;49.576;10.990;2023-04-26T09:00:11;3.23;;;1.93;;
3329;SDS011;1677;49.576;10.990;2023-04-26T09:02:38;4.23;;;1.90;;
3329;SDS011;1677;49.576;10.990;2023-04-26T09:05:06;5.93;;;2.00;;
3329;SDS011;1677;49.576;10.990;2023-04-26T09:07:34;4.30;;;2.07;;
3329;SDS011;1677;49.576;10.990;2023-04-26T09:10:04;3.30;;;1.67;;
3329;SDS011;1677;49.576;10.990;2023-04-26T09:12:30;4.37;;;1.93;;
3329;SDS011;1677;49.576;10.990;2023-04-26T09:14:56;3.47;;;1.80;;
3329;SDS011;1677;49.576;10.990;2023-04-26T09:17:25;3.20;;;1.97;;
3329;SDS011;1677;49.576;10.990;2023-04-26T09:19:59;5.33;;;2.07;;
3329;SDS011;1677;49.576;10.990;2023-04-26T09:22:32;3.20;;;1.97;;
3329;SDS011;1677;49.576;10.990;2023-04-26T09:25:00;5.93;;;2.20;;
3329;SDS011;1677;49.576;10.990;2023-04-26T09:27:37;2.23;;;2.03;;
3329;SDS011;1677;49.576;10.990;2023-04-26T09:30:14;5.63;;;2.20;;
3329;SDS011;1677;49.576;10.990;2023-04-26T09:32:55;5.53;;;1.73;;
3329;SDS011;1677;49.576;10.990;2023-04-26T09:35:34;2.23;;;1.67;;
3329;SDS011;1677;49.576;10.990;2023-04-26T09:38:05;3.10;;;1.60;;
3329;SDS011;1677;49.576;10.990;2023-04-26T09:40:34;3.60;;;1.90;;
3329;SDS011;1677;49.576;10.990;2023-04-26T09:45:31;2.92;;;2.03;;
3329;SDS011;1677;49.576;10.990;2023-04-26T09:48:11;3.87;;;1.90;;
3329;SDS011;1677;49.576;10.990;2023-04-26T09:50:41;3.10;;;1.70;;
3329;SDS011;1677;49.576;10.990;2023-04-26T09:53:08;7.13;;;2.07;;
3329;SDS011;1677;49.576;10.990;2023-04-26T09:55:35;2.97;;;1.90;;
3329;SDS011;1677;49.576;10.990;2023-04-26T09:58:06;3.03;;;1.80;;
3329;SDS011;1677;49.576;10.990;2023-04-26T10:00:33;4.13;;;2.03;;
3329;SDS011;1677;49.576;10.990;2023-04-26T10:03:00;4.17;;;1.97;;
3329;SDS011;1677;49.576;10.990;2023-04-26T10:05:26;6.60;;;2.50;;
3329;SDS011;1677;49.576;10.990;2023-04-26T10:07:52;2.73;;;2.20;;
3329;SDS011;1677;49.576;10.990;2023-04-26T10:10:18;2.50;;;2.23;;
3329;SDS011;1677;49.576;10.990;2023-04-26T10:12:45;2.87;;;1.90;;
3329;SDS011;1677;49.576;10.990;2023-04-26T10:15:11;7.10;;;2.00;;
3329;SDS011;1677;49.576;10.990;2023-04-26T10:17:37;3.03;;;1.60;;
3329;SDS011;1677;49.576;10.990;2023-04-26T10:20:03;3.10;;;2.03;;
3329;SDS011;1677;49.576;10.990;2023-04-26T10:22:33;3.57;;;1.80;;
3329;SDS011;1677;49.576;10.990;2023-04-26T10:25:03;2.60;;;1.80;;
3329;SDS011;1677;49.576;10.990;2023-04-26T10:30:07;3.73;;;2.17;;
3329;SDS011;1677;49.576;10.990;2023-04-26T10:35:25;3.77;;;1.93;;
3329;SDS011;1677;49.576;10.990;2023-04-26T10:40:28;2.27;;;1.47;;
3329;SDS011;1677;49.576;10.990;2023-04-26T10:45:38;3.60;;;1.97;;
3329;SDS011;1677;49.576;10.990;2023-04-26T10:54:11;2.50;;;1.90;;
3329;SDS011;1677;49.576;10.990;2023-04-26T10:59:08;4.73;;;2.20;;
3329;SDS011;1677;49.576;10.990;2023-04-26T11:01:35;5.43;;;3.60;;
3329;SDS011;1677;49.576;10.990;2023-04-26T11:04:07;4.40;;;1.97;;
3329;SDS011;1677;49.576;10.990;2023-04-26T11:06:47;6.13;;;2.00;;
3329;SDS011;1677;49.576;10.990;2023-04-26T11:12:03;3.40;;;2.30;;
3329;SDS011;1677;49.576;10.990;2023-04-26T11:14:30;2.57;;;1.97;;
3329;SDS011;1677;49.576;10.990;2023-04-26T11:16:56;7.53;;;4.00;;
3329;SDS011;1677;49.576;10.990;2023-04-26T11:19:22;5.53;;;3.40;;
3329;SDS011;1677;49.576;10.990;2023-04-26T11:21:48;7.63;;;3.70;;
3329;SDS011;1677;49.576;10.990;2023-04-26T11:24:14;5.10;;;2.63;;
3329;SDS011;1677;49.576;10.990;2023-04-26T11:26:39;2.17;;;1.97;;
3329;SDS011;1677;49.576;10.990;2023-04-26T11:29:08;3.80;;;1.80;;
3329;SDS011;1677;49.576;10.990;2023-04-26T11:31:37;3.30;;;2.07;;
3329;SDS011;1677;49.576;10.990;2023-04-26T11:34:03;2.67;;;1.80;;
3329;SDS011;1677;49.576;10.990;2023-04-26T11:36:29;4.70;;;3.10;;
3329;SDS011;1677;49.576;10.990;2023-04-26T11:38:54;2.90;;;2.37;;
3329;SDS011;1677;49.576;10.990;2023-04-26T11:41:21;2.50;;;2.13;;
3329;SDS011;1677;49.576;10.990;2023-04-26T11:43:48;1.90;;;1.60;;
3329;SDS011;1677;49.576;10.990;2023-04-26T11:46:13;2.67;;;2.20;;
3329;SDS011;1677;49.576;10.990;2023-04-26T11:48:40;3.47;;;2.00;;
3329;SDS011;1677;49.576;10.990;2023-04-26T11:51:07;3.67;;;2.10;;
3329;SDS011;1677;49.576;10.990;2023-04-26T11:53:37;3.60;;;1.83;;
3329;SDS011;1677;49.576;10.990;2023-04-26T11:56:25;5.30;;;3.10;;
3329;SDS011;1677;49.576;10.990;2023-04-26T11:58:51;4.30;;;2.13;;
3329;SDS011;1677;49.576;10.990;2023-04-26T12:03:48;4.67;;;2.33;;
3329;SDS011;1677;49.576;10.990;2023-04-26T12:06:30;4.20;;;3.10;;
3329;SDS011;1677;49.576;10.990;2023-04-26T12:09:05;4.50;;;2.10;;
3329;SDS011;1677;49.576;10.990;2023-04-26T12:11:33;2.47;;;2.10;;
3329;SDS011;1677;49.576;10.990;2023-04-26T12:13:59;5.53;;;2.63;;
3329;SDS011;1677;49.576;10.990;2023-04-26T12:16:25;3.97;;;2.33;;
3329;SDS011;1677;49.576;10.990;2023-04-26T12:18:51;4.57;;;3.13;;
3329;SDS011;1677;49.576;10.990;2023-04-26T12:21:17;3.90;;;2.40;;
3329;SDS011;1677;49.576;10.990;2023-04-26T12:23:44;3.37;;;2.27;;
3329;SDS011;1677;49.576;10.990;2023-04-26T12:26:12;4.30;;;2.30;;
3329;SDS011;1677;49.576;10.990;2023-04-26T12:28:38;3.80;;;2.57;;
3329;SDS011;1677;49.576;10.990;2023-04-26T12:31:04;2.93;;;2.63;;
3329;SDS011;1677;49.576;10.990;2023-04-26T12:33:30;3.90;;;2.57;;
3329;SDS011;1677;49.576;10.990;2023-04-26T12:35:57;2.27;;;2.07;;
3329;SDS011;1677;49.576;10.990;2023-04-26T12:38:32;2.50;;;2.17;;
3329;SDS011;1677;49.576;10.990;2023-04-26T12:40:58;3.80;;;1.90;;
3329;SDS011;1677;49.576;10.990;2023-04-26T12:43:23;2.33;;;2.13;;
3329;SDS011;1677;49.576;10.990;2023-04-26T12:45:50;4.80;;;2.70;;
3329;SDS011;1677;49.576;10.990;2023-04-26T12:48:16;5.40;;;2.60;;
3329;SDS011;1677;49.576;10.990;2023-04-26T12:50:41;3.70;;;2.60;;
3329;SDS011;1677;49.576;10.990;2023-04-26T12:53:07;4.20;;;2.75;;
3329;SDS011;1677;49.576;10.990;2023-04-26T12:55:35;11.33;;;5.60;;
3329;SDS011;1677;49.576;10.990;2023-04-26T12:58:01;3.20;;;2.23;;
3329;SDS011;1677;49.576;10.990;2023-04-26T13:00:26;3.30;;;2.60;;
3329;SDS011;1677;49.576;10.990;2023-04-26T13:02:53;5.23;;;3.10;;
3329;SDS011;1677;49.576;10.990;2023-04-26T13:05:19;4.80;;;2.40;;
3329;SDS011;1677;49.576;10.990;2023-04-26T13:07:45;4.90;;;2.93;;
3329;SDS011;1677;49.576;10.990;2023-04-26T13:10:11;3.77;;;2.73;;
3329;SDS011;1677;49.576;10.990;2023-04-26T13:12:37;6.27;;;3.43;;
3329;SDS011;1677;49.576;10.990;2023-04-26T13:15:06;3.63;;;2.43;;
3329;SDS011;1677;49.576;10.990;2023-04-26T13:17:33;7.00;;;3.10;;
3329;SDS011;1677;49.576;10.990;2023-04-26T13:20:00;4.40;;;3.23;;
3329;SDS011;1677;49.576;10.990;2023-04-26T13:22:25;3.70;;;2.50;;
3329;SDS011;1677;49.576;10.990;2023-04-26T13:24:51;3.73;;;2.70;;
3329;SDS011;1677;49.576;10.990;2023-04-26T13:27:17;6.63;;;3.20;;
3329;SDS011;1677;49.576;10.990;2023-04-26T13:29:42;3.33;;;2.30;;
3329;SDS011;1677;49.576;10.990;2023-04-26T13:32:08;4.23;;;2.43;;
3329;SDS011;1677;49.576;10.990;2023-04-26T13:34:33;2.93;;;2.63;;
3329;SDS011;1677;49.576;10.990;2023-04-26T13:36:59;4.70;;;2.30;;
3329;SDS011;1677;49.576;10.990;2023-04-26T13:39:25;6.10;;;2.90;;
3329;SDS011;1677;49.576;10.990;2023-04-26T13:41:54;3.53;;;2.83;;
3329;SDS011;1677;49.576;10.990;2023-04-26T13:44:22;3.60;;;2.60;;
3329;SDS011;1677;49.576;10.990;2023-04-26T13:46:48;3.53;;;2.13;;
3329;SDS011;1677;49.576;10.990;2023-04-26T13:49:14;2.37;;;2.13;;
3329;SDS011;1677;49.576;10.990;2023-04-26T13:51:41;4.57;;;2.90;;
3329;SDS011;1677;49.576;10.990;2023-04-26T13:54:06;2.80;;;2.53;;
3329;SDS011;1677;49.576;10.990;2023-04-26T13:56:32;4.93;;;2.70;;
3329;SDS011;1677;49.576;10.990;2023-04-26T13:58:58;2.43;;;2.20;;
3329;SDS011;1677;49.576;10.990;2023-04-26T14:01:29;4.70;;;2.50;;
3329;SDS011;1677;49.576;10.990;2023-04-26T14:03:55;6.43;;;2.90;;
3329;SDS011;1677;49.576;10.990;2023-04-26T14:06:21;5.07;;;2.60;;
3329;SDS011;1677;49.576;10.990;2023-04-26T14:08:46;3.67;;;2.90;;
3329;SDS011;1677;49.576;10.990;2023-04-26T14:11:12;3.73;;;2.87;;
3329;SDS011;1677;49.576;10.990;2023-04-26T14:13:39;4.50;;;3.03;;
3329;SDS011;1677;49.576;10.990;2023-04-26T14:16:05;3.42;;;2.80;;
3329;SDS011;1677;49.576;10.990;2023-04-26T14:18:32;4.70;;;2.80;;
3329;SDS011;1677;49.576;10.990;2023-04-26T14:20:57;3.33;;;2.80;;
3329;SDS011;1677;49.576;10.990;2023-04-26T14:23:23;3.37;;;2.60;;
3329;SDS011;1677;49.576;10.990;2023-04-26T14:25:51;6.50;;;2.80;;
3329;SDS011;1677;49.576;10.990;2023-04-26T14:28:17;2.40;;;2.10;;
3329;SDS011;1677;49.576;10.990;2023-04-26T14:30:43;3.00;;;2.07;;
3329;SDS011;1677;49.576;10.990;2023-04-26T14:33:10;3.33;;;2.30;;
3329;SDS011;1677;49.576;10.990;2023-04-26T14:35:35;5.07;;;2.60;;
3329;SDS011;1677;49.576;10.990;2023-04-26T14:38:02;6.40;;;2.60;;
3329;SDS011;1677;49.576;10.990;2023-04-26T14:40:28;2.97;;;2.40;;
3329;SDS011;1677;49.576;10.990;2023-04-26T14:42:54;6.77;;;4.07;;
3329;SDS011;1677;49.576;10.990;2023-04-26T14:45:19;4.00;;;2.60;;
3329;SDS011;1677;49.576;10.990;2023-04-26T14:47:45;6.20;;;2.53;;
3329;SDS011;1677;49.576;10.990;2023-04-26T14:50:10;4.10;;;2.60;;
3329;SDS011;1677;49.576;10.990;2023-04-26T14:52:38;2.57;;;2.03;;
3329;SDS011;1677;49.576;10.990;2023-04-26T14:55:04;3.13;;;2.60;;
3329;SDS011;1677;49.576;10.990;2023-04-26T14:57:30;5.97;;;2.20;;
3329;SDS011;1677;49.576;10.990;2023-04-26T14:59:56;3.30;;;2.50;;
3329;SDS011;1677;49.576;10.990;2023-04-26T15:02:30;3.57;;;2.30;;
3329;SDS011;1677;49.576;10.990;2023-04-26T15:04:55;7.77;;;2.80;;
3329;SDS011;1677;49.576;10.990;2023-04-26T15:07:21;5.87;;;2.93;;
3329;SDS011;1677;49.576;10.990;2023-04-26T15:09:47;2.50;;;2.30;;
3329;SDS011;1677;49.576;10.990;2023-04-26T15:12:12;2.33;;;2.10;;
3329;SDS011;1677;49.576;10.990;2023-04-26T15:14:38;4.57;;;3.07;;
3329;SDS011;1677;49.576;10.990;2023-04-26T15:17:03;5.13;;;2.40;;
3329;SDS011;1677;49.576;10.990;2023-04-26T15:19:29;5.77;;;2.67;;
3329;SDS011;1677;49.576;10.990;2023-04-26T15:21:56;4.13;;;2.50;;
3329;SDS011;1677;49.576;10.990;2023-04-26T15:24:21;6.00;;;3.83;;
3329;SDS011;1677;49.576;10.990;2023-04-26T15:26:47;4.90;;;2.50;;